Time;durP1;ratioP1;P1;durP2;ratioP2;P2;SDS_P1;SDS_P2;PMS_P1;PMS_P2;Temp;Humidity;BMP_temperature;BMP_pressure;BME280_temperature;BME280_humidity;BME280_pressure;Samples;Min_cycle;Max_cycle;Signal;HPM_P1;HPM_P2
2022/10/10 00:00:31;;;;;;;;;;;9.00;99.90;;;;;;4995514;28;20055;-67
2022/10/10 00:02:57;;;;;;;;;;;9.00;99.90;;;;;;5007407;28;20367;-67
2022/10/10 00:05:23;;;;;;;;;;;8.90;99.90;;;;;;4992380;28;19930;-67
2022/10/10 00:07:48;;;;;;;;;;;8.80;99.90;;;;;;4990538;28;19965;-67
2022/10/10 00:10:14;;;;;;;;;;;8.90;99.90;;;;;;4992204;28;19930;-67
2022/10/10 00:12:39;;;;;;;;;;;8.90;99.90;;;;;;4991890;28;20382;-67
2022/10/10 00:15:05;;;;;;;;;;;8.90;99.90;;;;;;4991854;28;19979;-67
2022/10/10 00:17:31;;;;;;;;;;;8.80;99.90;;;;;;4992075;28;19932;-67
2022/10/10 00:19:56;;;;;;;;;;;8.80;99.90;;;;;;4991625;28;19926;-67
2022/10/10 00:22:22;;;;;;;;;;;8.80;99.90;;;;;;4990722;28;19926;-67
2022/10/10 00:24:47;;;;;;;;;;;8.80;99.90;;;;;;4991401;28;19926;-68
2022/10/10 00:27:13;;;;;;;;;;;8.80;99.90;;;;;;4990768;28;19930;-67
2022/10/10 00:29:39;;;;;;;;;;;8.80;99.90;;;;;;4990386;28;19946;-67
2022/10/10 00:32:04;;;;;;;;;;;8.70;99.90;;;;;;4990045;28;19930;-67
2022/10/10 00:34:30;;;;;;;;;;;8.70;99.90;;;;;;4991825;28;19926;-67
2022/10/10 00:36:55;;;;;;;;;;;8.70;99.90;;;;;;4990627;28;19933;-67
2022/10/10 00:39:21;;;;;;;;;;;8.70;99.90;;;;;;4990923;28;19979;-65
2022/10/10 00:41:46;;;;;;;;;;;8.70;99.90;;;;;;4974623;28;20317;-66
2022/10/10 00:44:13;;;;;;;;;;;8.70;99.90;;;;;;4991211;28;19973;-65
2022/10/10 00:46:39;;;;;;;;;;;8.60;99.90;;;;;;4991669;28;20305;-65
2022/10/10 00:49:09;;;;;;;;;;;8.60;99.90;;;;;;4989742;28;19952;-65
2022/10/10 00:51:34;;;;;;;;;;;8.60;99.90;;;;;;4991722;28;19937;-65
2022/10/10 00:54:03;;;;;;;;;;;8.60;99.90;;;;;;4990146;28;19925;-65
2022/10/10 00:56:31;;;;;;;;;;;8.60;99.90;;;;;;4991479;28;19980;-65
2022/10/10 00:58:58;;;;;;;;;;;8.60;99.90;;;;;;4991092;28;19926;-65
2022/10/10 01:01:24;;;;;;;;;;;8.60;99.90;;;;;;4991264;28;20268;-65
2022/10/10 01:03:52;;;;;;;;;;;8.60;99.90;;;;;;4991299;28;19933;-67
2022/10/10 01:06:17;;;;;;;;;;;8.60;99.90;;;;;;4991384;28;19977;-66
2022/10/10 01:08:43;;;;;;;;;;;8.60;99.90;;;;;;4973983;28;19980;-66
2022/10/10 01:11:08;;;;;;;;;;;8.60;99.90;;;;;;4990674;28;19946;-66
2022/10/10 01:13:34;;;;;;;;;;;8.60;99.90;;;;;;4990420;28;19930;-67
2022/10/10 01:16:09;;;;;;;;;;;8.50;99.90;;;;;;4989435;28;19949;-66
2022/10/10 01:18:40;;;;;;;;;;;8.50;99.90;;;;;;4991262;28;19926;-66
2022/10/10 01:21:22;;;;;;;;;;;8.50;99.90;;;;;;4990702;28;19926;-66
2022/10/10 01:23:50;;;;;;;;;;;8.50;99.90;;;;;;4991012;28;19937;-67
2022/10/10 01:26:15;;;;;;;;;;;8.50;99.90;;;;;;4990391;28;20017;-66
2022/10/10 01:28:41;;;;;;;;;;;8.50;99.90;;;;;;4990895;28;20016;-66
2022/10/10 01:31:09;;;;;;;;;;;8.50;99.90;;;;;;4990516;28;20375;-66
2022/10/10 01:33:43;;;;;;;;;;;8.40;99.90;;;;;;4989728;28;19930;-66
2022/10/10 01:36:18;;;;;;;;;;;8.40;99.90;;;;;;4990231;28;19937;-67
2022/10/10 01:38:50;;;;;;;;;;;8.40;99.90;;;;;;4973452;28;19965;-66
2022/10/10 01:41:15;;;;;;;;;;;8.40;99.90;;;;;;4990292;28;19929;-67
2022/10/10 01:43:41;;;;;;;;;;;8.40;99.90;;;;;;4990676;28;19926;-67
2022/10/10 01:46:10;;;;;;;;;;;8.40;99.90;;;;;;4990125;28;19925;-67
2022/10/10 01:48:37;;;;;;;;;;;8.40;99.90;;;;;;4990462;28;19926;-66
2022/10/10 01:51:02;;;;;;;;;;;8.40;99.90;;;;;;4990229;28;19925;-66
2022/10/10 01:53:31;;;;;;;;;;;8.40;99.90;;;;;;4990643;28;19932;-66
2022/10/10 01:56:08;;;;;;;;;;;8.30;99.90;;;;;;4989503;28;19933;-68
2022/10/10 01:58:54;;;;;;;;;;;8.30;99.90;;;;;;4990592;28;19944;-66
2022/10/10 02:01:24;;;;;;;;;;;8.30;99.90;;;;;;4988714;28;20026;-66
2022/10/10 02:03:53;;;;;;;;;;;8.30;99.90;;;;;;5005887;28;19926;-67
2022/10/10 02:06:29;;;;;;;;;;;8.40;99.90;;;;;;4990192;28;19922;-68
2022/10/10 02:08:58;;;;;;;;;;;8.30;99.90;;;;;;4990517;28;19933;-67
2022/10/10 02:11:25;;;;;;;;;;;8.30;99.90;;;;;;4990500;28;19930;-67
2022/10/10 02:13:53;;;;;;;;;;;8.90;99.90;;;;;;4990427;28;20357;-66
2022/10/10 02:16:25;;;;;;;;;;;8.30;99.90;;;;;;4989997;28;20496;-67
2022/10/10 02:18:52;;;;;;;;;;;8.30;99.90;;;;;;4990292;28;19965;-66
2022/10/10 02:21:18;;;;;;;;;;;8.30;99.90;;;;;;4989701;28;20346;-66
2022/10/10 02:23:45;;;;;;;;;;;8.30;99.90;;;;;;4989213;28;20121;-66
2022/10/10 02:26:12;;;;;;;;;;;8.30;99.90;;;;;;4989521;28;20463;-66
2022/10/10 02:28:50;;;;;;;;;;;8.30;99.90;;;;;;4990060;28;20286;-66
2022/10/10 02:31:18;;;;;;;;;;;8.30;99.90;;;;;;4989652;28;19926;-66
2022/10/10 02:33:47;;;;;;;;;;;8.30;99.90;;;;;;5005326;28;19933;-66
2022/10/10 02:36:13;;;;;;;;;;;8.30;99.90;;;;;;4989611;28;20329;-66
2022/10/10 02:38:40;;;;;;;;;;;8.30;99.90;;;;;;4989090;28;19975;-66
2022/10/10 02:41:07;;;;;;;;;;;8.30;99.90;;;;;;4989638;28;20012;-67
2022/10/10 02:43:33;;;;;;;;;;;8.30;99.90;;;;;;4988266;28;19933;-66
2022/10/10 02:46:03;;;;;;;;;;;8.30;99.90;;;;;;4989881;28;19925;-66
2022/10/10 02:48:29;;;;;;;;;;;8.30;99.90;;;;;;4988594;28;19930;-66
2022/10/10 02:50:55;;;;;;;;;;;8.30;99.90;;;;;;4988282;28;20312;-68
2022/10/10 02:53:20;;;;;;;;;;;8.40;99.90;;;;;;4989393;28;19926;-66
2022/10/10 02:55:46;;;;;;;;;;;8.40;99.90;;;;;;4989787;28;19926;-66
2022/10/10 02:58:13;;;;;;;;;;;8.40;99.90;;;;;;4989366;28;19933;-67
2022/10/10 03:00:38;;;;;;;;;;;8.40;99.90;;;;;;4989722;28;19933;-66
2022/10/10 03:03:04;;;;;;;;;;;8.40;99.90;;;;;;4972024;28;19929;-68
2022/10/10 03:05:29;;;;;;;;;;;8.40;99.90;;;;;;4987893;28;19933;-66
2022/10/10 03:07:55;;;;;;;;;;;8.40;99.90;;;;;;4988464;28;20276;-67
2022/10/10 03:10:20;;;;;;;;;;;8.30;99.90;;;;;;4989068;28;19930;-66
2022/10/10 03:12:46;;;;;;;;;;;8.30;99.90;;;;;;4989292;28;20329;-66
2022/10/10 03:15:11;;;;;;;;;;;8.30;99.90;;;;;;4988024;28;20076;-66
2022/10/10 03:17:37;;;;;;;;;;;8.30;99.90;;;;;;4989207;28;20327;-66
2022/10/10 03:20:03;;;;;;;;;;;8.30;99.90;;;;;;4988539;28;19999;-66
2022/10/10 03:22:29;;;;;;;;;;;8.30;99.90;;;;;;4988996;28;19922;-65
2022/10/10 03:24:54;;;;;;;;;;;8.30;99.90;;;;;;4988450;28;20317;-65
2022/10/10 03:27:20;;;;;;;;;;;8.30;99.90;;;;;;4987831;28;19926;-65
2022/10/10 03:29:45;;;;;;;;;;;8.40;99.90;;;;;;4989218;28;20032;-66
2022/10/10 03:32:11;;;;;;;;;;;8.30;99.90;;;;;;4971390;28;19926;-67
2022/10/10 03:34:36;;;;;;;;;;;8.30;99.90;;;;;;4987918;28;19971;-66
2022/10/10 03:37:02;;;;;;;;;;;8.30;99.90;;;;;;4989229;28;19926;-66
2022/10/10 03:39:28;;;;;;;;;;;8.30;99.90;;;;;;4990686;28;19941;-66
2022/10/10 03:41:53;;;;;;;;;;;8.30;99.90;;;;;;4992492;28;20510;-66
2022/10/10 03:44:19;;;;;;;;;;;8.40;99.90;;;;;;4992037;28;20300;-66
2022/10/10 03:46:44;;;;;;;;;;;8.30;99.90;;;;;;4992558;28;19925;-66
2022/10/10 03:49:10;;;;;;;;;;;8.40;99.90;;;;;;4992272;28;20020;-66
2022/10/10 03:51:35;;;;;;;;;;;8.30;99.90;;;;;;4973922;28;19932;-65
2022/10/10 03:54:01;;;;;;;;;;;8.30;99.90;;;;;;4992491;28;19926;-65
2022/10/10 03:56:27;;;;;;;;;;;8.30;99.90;;;;;;4991859;28;19933;-66
2022/10/10 03:58:52;;;;;;;;;;;8.30;99.90;;;;;;4992476;28;19980;-66
2022/10/10 04:01:18;;;;;;;;;;;8.40;99.90;;;;;;4992194;28;19932;-66
2022/10/10 04:03:43;;;;;;;;;;;8.30;99.90;;;;;;4992271;28;19967;-66
2022/10/10 04:06:09;;;;;;;;;;;8.30;99.90;;;;;;4992144;28;19925;-66
2022/10/10 04:08:35;;;;;;;;;;;8.40;99.90;;;;;;4991645;28;19926;-66
2022/10/10 04:11:00;;;;;;;;;;;8.40;99.90;;;;;;4991107;28;19930;-66
2022/10/10 04:13:26;;;;;;;;;;;8.40;99.90;;;;;;4991455;28;20226;-66
2022/10/10 04:15:52;;;;;;;;;;;8.40;99.90;;;;;;4991196;28;19934;-66
2022/10/10 04:18:18;;;;;;;;;;;8.40;99.90;;;;;;4991767;28;19945;-66
2022/10/10 04:20:44;;;;;;;;;;;8.40;99.90;;;;;;4991931;28;19929;-66
2022/10/10 04:23:09;;;;;;;;;;;8.40;99.90;;;;;;5023927;28;20008;-66
2022/10/10 04:25:35;;;;;;;;;;;8.40;99.90;;;;;;4990205;28;19926;-66
2022/10/10 04:28:00;;;;;;;;;;;8.40;99.90;;;;;;4990500;28;19937;-68
2022/10/10 04:30:28;;;;;;;;;;;8.40;99.90;;;;;;4990260;28;19988;-65
2022/10/10 04:32:53;;;;;;;;;;;8.40;99.90;;;;;;4991894;28;19925;-68
2022/10/10 04:35:19;;;;;;;;;;;8.40;99.90;;;;;;4990362;28;20357;-67
2022/10/10 04:37:45;;;;;;;;;;;8.40;99.90;;;;;;4974646;28;20037;-68
2022/10/10 04:40:11;;;;;;;;;;;8.30;99.90;;;;;;4991964;28;20075;-67
2022/10/10 04:42:36;;;;;;;;;;;8.30;99.90;;;;;;4991424;28;20043;-67
2022/10/10 04:45:02;;;;;;;;;;;8.30;99.90;;;;;;4991453;28;19932;-65
2022/10/10 04:47:27;;;;;;;;;;;8.30;99.90;;;;;;4973795;28;19979;-66
2022/10/10 04:49:53;;;;;;;;;;;8.30;99.90;;;;;;4991181;28;19940;-66
2022/10/10 04:52:19;;;;;;;;;;;8.30;99.90;;;;;;4991339;28;20321;-68
2022/10/10 04:54:44;;;;;;;;;;;8.30;99.90;;;;;;4990878;28;20046;-66
2022/10/10 04:57:10;;;;;;;;;;;8.30;99.90;;;;;;4990137;28;19932;-66
2022/10/10 04:59:35;;;;;;;;;;;8.30;99.90;;;;;;4989852;28;19925;-66
2022/10/10 05:02:01;;;;;;;;;;;8.20;99.90;;;;;;4991218;28;19992;-66
2022/10/10 05:04:27;;;;;;;;;;;8.20;99.90;;;;;;4990845;28;19926;-65
2022/10/10 05:06:52;;;;;;;;;;;8.20;99.90;;;;;;4991035;28;19926;-66
2022/10/10 05:09:18;;;;;;;;;;;8.20;99.90;;;;;;4989903;28;19932;-66
2022/10/10 05:11:43;;;;;;;;;;;8.20;99.90;;;;;;4989729;28;19930;-66
2022/10/10 05:14:09;;;;;;;;;;;8.10;99.90;;;;;;4990051;28;20255;-66
2022/10/10 05:16:34;;;;;;;;;;;8.20;99.90;;;;;;4990781;28;20008;-66
2022/10/10 05:19:00;;;;;;;;;;;8.10;99.90;;;;;;4989665;28;19941;-66
2022/10/10 05:21:26;;;;;;;;;;;8.10;99.90;;;;;;4990788;28;20574;-66
2022/10/10 05:23:52;;;;;;;;;;;8.10;99.90;;;;;;5022608;28;19926;-68
2022/10/10 05:26:18;;;;;;;;;;;8.10;99.90;;;;;;4990590;28;20334;-66
2022/10/10 05:28:44;;;;;;;;;;;8.10;99.90;;;;;;4989362;28;19932;-66
2022/10/10 05:31:10;;;;;;;;;;;8.10;99.90;;;;;;4989410;28;20016;-65
2022/10/10 05:33:35;;;;;;;;;;;8.10;99.90;;;;;;4989295;28;19926;-66
2022/10/10 05:36:03;;;;;;;;;;;8.00;99.90;;;;;;4990256;28;20387;-65
2022/10/10 05:38:29;;;;;;;;;;;8.00;99.90;;;;;;4990025;28;20268;-66
2022/10/10 05:40:55;;;;;;;;;;;8.00;99.90;;;;;;4989880;28;19926;-66
2022/10/10 05:43:20;;;;;;;;;;;7.70;99.90;;;;;;4990350;28;20011;-66
2022/10/10 05:45:46;;;;;;;;;;;8.00;99.90;;;;;;4988665;28;20157;-66
2022/10/10 05:48:12;;;;;;;;;;;8.00;99.90;;;;;;4989501;28;19926;-67
2022/10/10 05:50:39;;;;;;;;;;;8.00;99.90;;;;;;4990039;28;19926;-67
2022/10/10 05:53:05;;;;;;;;;;;8.00;99.90;;;;;;4990470;28;20302;-67
2022/10/10 05:55:31;;;;;;;;;;;8.00;99.90;;;;;;4988580;28;19933;-67
2022/10/10 05:57:57;;;;;;;;;;;8.00;99.90;;;;;;4990334;28;19926;-67
2022/10/10 06:00:23;;;;;;;;;;;8.00;99.90;;;;;;4989731;28;19949;-67
2022/10/10 06:02:48;;;;;;;;;;;8.10;99.90;;;;;;4989905;28;19971;-67
2022/10/10 06:05:14;;;;;;;;;;;8.10;99.90;;;;;;4988900;28;19953;-67
2022/10/10 06:07:39;;;;;;;;;;;8.10;99.90;;;;;;4988194;28;19926;-67
2022/10/10 06:10:05;;;;;;;;;;;8.20;99.90;;;;;;4989868;28;19926;-67
2022/10/10 06:12:31;;;;;;;;;;;8.10;99.90;;;;;;5020787;28;19926;-70
2022/10/10 06:14:56;;;;;;;;;;;8.10;99.90;;;;;;4989708;28;20282;-66
2022/10/10 06:17:22;;;;;;;;;;;8.20;99.90;;;;;;4990209;28;20347;-69
2022/10/10 06:19:47;;;;;;;;;;;8.30;99.90;;;;;;5021701;28;19926;-69
2022/10/10 06:22:13;;;;;;;;;;;8.20;99.90;;;;;;4990424;28;20040;-68
2022/10/10 06:24:39;;;;;;;;;;;8.30;99.90;;;;;;4988264;28;19933;-67
2022/10/10 06:27:04;;;;;;;;;;;8.30;99.90;;;;;;4989847;28;19948;-67
2022/10/10 06:29:30;;;;;;;;;;;8.30;99.90;;;;;;4988729;28;19971;-68
2022/10/10 06:31:55;;;;;;;;;;;8.40;99.90;;;;;;4989937;28;20001;-67
2022/10/10 06:34:21;;;;;;;;;;;8.40;99.90;;;;;;4989995;28;19934;-67
2022/10/10 06:36:48;;;;;;;;;;;8.50;99.90;;;;;;4989951;28;19926;-68
2022/10/10 06:39:13;;;;;;;;;;;8.50;99.90;;;;;;4989718;28;20044;-67
2022/10/10 06:41:39;;;;;;;;;;;8.50;99.90;;;;;;4989320;28;19969;-67
2022/10/10 06:44:05;;;;;;;;;;;8.60;99.90;;;;;;4972381;28;19926;-67
2022/10/10 06:46:33;;;;;;;;;;;8.60;99.90;;;;;;4989886;28;19926;-66
2022/10/10 06:48:58;;;;;;;;;;;8.70;99.90;;;;;;4988479;28;20078;-66
2022/10/10 06:51:24;;;;;;;;;;;8.80;99.90;;;;;;4989888;28;20438;-68
2022/10/10 06:53:50;;;;;;;;;;;8.80;99.90;;;;;;4988270;28;20011;-67
2022/10/10 06:56:22;;;;;;;;;;;8.90;99.90;;;;;;4989337;28;19972;-68
2022/10/10 06:58:48;;;;;;;;;;;9.00;99.90;;;;;;4988371;28;19926;-68
2022/10/10 07:01:16;;;;;;;;;;;9.10;99.90;;;;;;4988490;28;20431;-67
2022/10/10 07:03:41;;;;;;;;;;;9.30;99.90;;;;;;4989198;28;20394;-67
2022/10/10 07:06:08;;;;;;;;;;;9.40;99.90;;;;;;4989592;28;19973;-68
2022/10/10 07:08:33;;;;;;;;;;;9.40;99.90;;;;;;4989516;28;20063;-67
2022/10/10 07:10:59;;;;;;;;;;;9.50;99.90;;;;;;4989225;28;20020;-67
2022/10/10 07:13:24;;;;;;;;;;;9.50;99.90;;;;;;4992102;28;19926;-68
2022/10/10 07:15:50;;;;;;;;;;;9.50;99.90;;;;;;4975150;28;19926;-68
2022/10/10 07:18:16;;;;;;;;;;;9.60;99.90;;;;;;4992049;28;19926;-67
2022/10/10 07:20:42;;;;;;;;;;;9.80;99.90;;;;;;4992874;28;19948;-66
2022/10/10 07:23:07;;;;;;;;;;;10.50;99.90;;;;;;4993093;28;20423;-66
2022/10/10 07:25:33;;;;;;;;;;;11.30;99.90;;;;;;4992621;28;19940;-66
2022/10/10 07:27:59;;;;;;;;;;;11.90;99.90;;;;;;4992772;28;19961;-66
2022/10/10 07:30:24;;;;;;;;;;;12.30;99.90;;;;;;4992652;28;19933;-65
2022/10/10 07:32:54;;;;;;;;;;;12.70;99.90;;;;;;4975558;28;19926;-66
2022/10/10 07:35:20;;;;;;;;;;;13.30;99.90;;;;;;4991573;28;20327;-67
2022/10/10 07:37:46;;;;;;;;;;;13.90;99.90;;;;;;4991260;28;20005;-66
2022/10/10 07:40:12;;;;;;;;;;;14.20;99.90;;;;;;4992430;28;20025;-66
2022/10/10 07:42:37;;;;;;;;;;;14.60;99.90;;;;;;4975012;28;20387;-67
2022/10/10 07:45:03;;;;;;;;;;;14.50;99.90;;;;;;4991812;28;19929;-69
2022/10/10 07:47:29;;;;;;;;;;;14.10;99.90;;;;;;4992323;28;20021;-68
2022/10/10 07:49:54;;;;;;;;;;;13.80;99.90;;;;;;4990999;28;20020;-67
2022/10/10 07:52:20;;;;;;;;;;;13.40;99.90;;;;;;4992452;28;20371;-67
2022/10/10 07:54:46;;;;;;;;;;;13.20;99.90;;;;;;4990707;28;19926;-67
2022/10/10 07:57:11;;;;;;;;;;;13.00;99.90;;;;;;4991518;28;19991;-69
2022/10/10 07:59:37;;;;;;;;;;;12.90;99.90;;;;;;4975015;28;20312;-67
2022/10/10 08:02:02;;;;;;;;;;;12.90;99.90;;;;;;4991840;28;19935;-66
2022/10/10 08:04:28;;;;;;;;;;;13.00;99.90;;;;;;4992570;28;19926;-67
2022/10/10 08:06:53;;;;;;;;;;;13.30;99.90;;;;;;4989588;28;19929;-73
2022/10/10 08:09:19;;;;;;;;;;;13.60;99.90;;;;;;4974117;28;19981;-68
2022/10/10 08:11:52;;;;;;;;;;;14.00;99.90;;;;;;4988516;28;20449;-73
2022/10/10 08:14:23;;;;;;;;;;;14.60;99.90;;;;;;4983026;28;19968;-70
2022/10/10 08:16:53;;;;;;;;;;;15.10;99.90;;;;;;5018714;28;19922;-67
2022/10/10 08:19:19;;;;;;;;;;;15.40;99.90;;;;;;4988325;28;19928;-73
2022/10/10 08:21:45;;;;;;;;;;;15.30;99.90;;;;;;4990076;28;19925;-74
2022/10/10 08:24:13;;;;;;;;;;;15.10;99.90;;;;;;5021708;28;19968;-68
2022/10/10 08:26:39;;;;;;;;;;;15.40;99.90;;;;;;4989370;28;20421;-67
2022/10/10 08:29:04;;;;;;;;;;;16.20;99.90;;;;;;4990529;28;19933;-68
2022/10/10 08:31:30;;;;;;;;;;;17.10;99.90;;;;;;4990625;28;20302;-65
2022/10/10 08:33:55;;;;;;;;;;;17.80;99.90;;;;;;4988755;28;20009;-68
2022/10/10 08:36:22;;;;;;;;;;;18.10;99.90;;;;;;4990342;28;20389;-68
2022/10/10 08:38:47;;;;;;;;;;;18.20;99.40;;;;;;4973831;28;19925;-71
2022/10/10 08:41:18;;;;;;;;;;;18.40;99.90;;;;;;4991766;28;19955;-66
2022/10/10 08:43:48;;;;;;;;;;;18.30;98.80;;;;;;4987737;28;19985;-67
2022/10/10 08:46:34;;;;;;;;;;;18.10;98.80;;;;;;5018957;28;20475;-69
2022/10/10 08:49:07;;;;;;;;;;;18.00;99.10;;;;;;4987370;28;20439;-70
2022/10/10 08:51:34;;;;;;;;;;;17.60;99.50;;;;;;4988027;28;19926;-69
2022/10/10 08:54:03;;;;;;;;;;;17.10;99.90;;;;;;4991326;28;19926;-69
2022/10/10 08:56:29;;;;;;;;;;;16.70;99.90;;;;;;4989236;28;20008;-70
2022/10/10 08:58:59;;;;;;;;;;;16.20;99.90;;;;;;4988063;28;19932;-70
2022/10/10 09:01:29;;;;;;;;;;;16.00;99.90;;;;;;4989420;28;20416;-71
2022/10/10 09:03:56;;;;;;;;;;;15.80;99.90;;;;;;4990442;28;19930;-70
2022/10/10 09:06:28;;;;;;;;;;;15.80;99.90;;;;;;4990087;28;19926;-70
2022/10/10 09:08:57;;;;;;;;;;;15.60;99.90;;;;;;4989953;28;19965;-70
2022/10/10 09:11:42;;;;;;;;;;;15.40;99.90;;;;;;4990086;28;19972;-69
2022/10/10 09:14:07;;;;;;;;;;;15.20;99.90;;;;;;4990790;28;20417;-69
2022/10/10 09:16:54;;;;;;;;;;;15.20;99.90;;;;;;4990866;28;19969;-69
2022/10/10 09:19:26;;;;;;;;;;;15.20;99.90;;;;;;4990035;28;19926;-68
2022/10/10 09:21:55;;;;;;;;;;;15.20;99.90;;;;;;4990478;28;19926;-71
2022/10/10 09:24:21;;;;;;;;;;;15.10;99.90;;;;;;4990653;28;19926;-69
2022/10/10 09:26:48;;;;;;;;;;;15.20;99.90;;;;;;4991032;28;19933;-70
2022/10/10 09:29:33;;;;;;;;;;;15.10;99.90;;;;;;4990446;28;19983;-69
2022/10/10 09:32:04;;;;;;;;;;;15.20;99.90;;;;;;4990077;28;20302;-71
2022/10/10 09:34:33;;;;;;;;;;;15.20;99.90;;;;;;4988790;28;19991;-70
2022/10/10 09:37:01;;;;;;;;;;;15.20;99.90;;;;;;4986128;28;19925;-71
2022/10/10 09:39:39;;;;;;;;;;;15.10;99.90;;;;;;4989715;28;19940;-70
2022/10/10 09:42:13;;;;;;;;;;;15.10;99.90;;;;;;4990681;28;20019;-70
2022/10/10 09:44:39;;;;;;;;;;;15.00;99.90;;;;;;4990351;28;19926;-70
2022/10/10 09:47:05;;;;;;;;;;;15.00;99.90;;;;;;4988802;28;19930;-70
2022/10/10 09:49:32;;;;;;;;;;;15.00;99.90;;;;;;4989454;28;19926;-70
2022/10/10 09:51:59;;;;;;;;;;;15.00;99.90;;;;;;4989583;28;20005;-71
2022/10/10 09:54:27;;;;;;;;;;;15.00;99.90;;;;;;4973622;28;20386;-68
2022/10/10 09:56:53;;;;;;;;;;;15.00;99.90;;;;;;4986033;28;19980;-70
2022/10/10 09:59:38;;;;;;;;;;;15.10;99.90;;;;;;4989016;28;20282;-69
2022/10/10 10:02:33;;;;;;;;;;;15.10;99.90;;;;;;4989537;28;20026;-69
2022/10/10 10:04:59;;;;;;;;;;;15.10;99.90;;;;;;5000970;28;20406;-70
2022/10/10 10:07:30;;;;;;;;;;;15.20;99.90;;;;;;4987032;28;20099;-70
2022/10/10 10:10:03;;;;;;;;;;;15.20;99.90;;;;;;4986318;28;19922;-70
2022/10/10 10:12:36;;;;;;;;;;;15.30;99.90;;;;;;4987933;28;19926;-70
2022/10/10 10:15:03;;;;;;;;;;;15.30;99.90;;;;;;4986390;28;19973;-70
2022/10/10 10:17:29;;;;;;;;;;;15.40;99.90;;;;;;4990093;28;19927;-71
2022/10/10 10:19:54;;;;;;;;;;;15.40;99.90;;;;;;4987516;28;20381;-70
2022/10/10 10:22:24;;;;;;;;;;;15.50;99.90;;;;;;4989808;28;20393;-69
2022/10/10 10:24:50;;;;;;;;;;;15.40;99.90;;;;;;5021387;28;19926;-69
2022/10/10 10:27:20;;;;;;;;;;;15.50;99.90;;;;;;4989792;28;19933;-70
2022/10/10 10:29:53;;;;;;;;;;;15.50;99.90;;;;;;4988663;28;20020;-71
2022/10/10 10:32:31;;;;;;;;;;;15.60;99.90;;;;;;4989921;28;19944;-69
2022/10/10 10:35:06;;;;;;;;;;;15.60;99.90;;;;;;4989283;28;19926;-69
2022/10/10 10:37:31;;;;;;;;;;;15.50;99.90;;;;;;4988973;28;20367;-70
2022/10/10 10:40:15;;;;;;;;;;;15.60;99.90;;;;;;4989721;28;19939;-70
2022/10/10 10:42:49;;;;;;;;;;;15.50;99.90;;;;;;4987929;28;19932;-70
2022/10/10 10:45:28;;;;;;;;;;;15.60;99.90;;;;;;4989761;28;19929;-70
2022/10/10 10:48:14;;;;;;;;;;;15.70;99.90;;;;;;4985586;28;19930;-68
2022/10/10 10:50:45;;;;;;;;;;;15.80;99.90;;;;;;4999437;28;19999;-66
2022/10/10 10:53:23;;;;;;;;;;;15.90;99.90;;;;;;4989728;28;19926;-65
2022/10/10 10:55:58;;;;;;;;;;;16.10;99.90;;;;;;4989103;28;19925;-69
2022/10/10 10:58:36;;;;;;;;;;;16.20;99.90;;;;;;4988464;28;20260;-68
2022/10/10 11:01:08;;;;;;;;;;;16.20;99.90;;;;;;4989544;28;19926;-67
2022/10/10 11:03:34;;;;;;;;;;;16.20;99.90;;;;;;4989783;28;19975;-66
2022/10/10 11:06:09;;;;;;;;;;;16.30;99.90;;;;;;4988938;28;19926;-67
2022/10/10 11:08:40;;;;;;;;;;;16.30;99.90;;;;;;4989468;28;19929;-66
2022/10/10 11:11:17;;;;;;;;;;;16.30;99.90;;;;;;4989520;28;20020;-70
2022/10/10 11:13:46;;;;;;;;;;;16.40;99.90;;;;;;4972689;28;19933;-69
2022/10/10 11:16:18;;;;;;;;;;;16.40;99.90;;;;;;4988393;28;19926;-66
2022/10/10 11:19:00;;;;;;;;;;;16.40;99.90;;;;;;4972588;28;19934;-66
2022/10/10 11:21:26;;;;;;;;;;;16.30;99.90;;;;;;4988124;28;19926;-66
2022/10/10 11:23:59;;;;;;;;;;;16.20;99.90;;;;;;4972600;28;19926;-67
2022/10/10 11:26:27;;;;;;;;;;;16.10;99.90;;;;;;4988980;28;19934;-67
2022/10/10 11:28:56;;;;;;;;;;;16.00;99.90;;;;;;4988378;28;20019;-68
2022/10/10 11:31:25;;;;;;;;;;;15.90;99.90;;;;;;4989124;28;19973;-67
2022/10/10 11:33:58;;;;;;;;;;;15.90;99.90;;;;;;4988974;28;20291;-67
2022/10/10 11:36:31;;;;;;;;;;;15.80;99.90;;;;;;4988696;28;19930;-67
2022/10/10 11:39:17;;;;;;;;;;;15.80;99.90;;;;;;4989202;28;20062;-67
2022/10/10 11:41:45;;;;;;;;;;;15.70;99.90;;;;;;4989698;28;19978;-69
2022/10/10 11:44:13;;;;;;;;;;;15.60;99.90;;;;;;4988114;28;19930;-69
2022/10/10 11:46:47;;;;;;;;;;;15.50;99.90;;;;;;4989794;28;19982;-69
2022/10/10 11:49:16;;;;;;;;;;;15.50;99.90;;;;;;4989210;28;20477;-70
2022/10/10 11:51:42;;;;;;;;;;;15.40;99.90;;;;;;4986287;28;19926;-68
2022/10/10 11:54:31;;;;;;;;;;;15.40;99.90;;;;;;4986742;28;19925;-69
2022/10/10 11:57:00;;;;;;;;;;;15.40;99.90;;;;;;4988342;28;19930;-69
2022/10/10 11:59:29;;;;;;;;;;;15.40;99.90;;;;;;4990096;28;19988;-68
2022/10/10 12:01:57;;;;;;;;;;;15.40;99.90;;;;;;4975088;28;19926;-67
2022/10/10 12:04:22;;;;;;;;;;;15.40;99.90;;;;;;4991993;28;19926;-68
2022/10/10 12:06:48;;;;;;;;;;;15.40;99.90;;;;;;4990980;28;19926;-66
2022/10/10 12:09:16;;;;;;;;;;;15.40;99.90;;;;;;4992036;28;19929;-68
2022/10/10 12:11:44;;;;;;;;;;;15.40;99.90;;;;;;4991908;28;20456;-65
2022/10/10 12:14:13;;;;;;;;;;;15.40;99.90;;;;;;4992016;28;19973;-67
2022/10/10 12:16:39;;;;;;;;;;;15.40;99.90;;;;;;4990478;28;20013;-69
2022/10/10 12:19:06;;;;;;;;;;;15.40;99.90;;;;;;4990915;28;20349;-68
2022/10/10 12:21:50;;;;;;;;;;;15.40;99.90;;;;;;4973347;28;20016;-66
2022/10/10 12:24:15;;;;;;;;;;;15.40;99.90;;;;;;4991864;28;19926;-69
2022/10/10 12:26:53;;;;;;;;;;;15.50;99.90;;;;;;4990804;28;20290;-67
2022/10/10 12:29:37;;;;;;;;;;;15.50;99.90;;;;;;4990174;28;20450;-69
2022/10/10 12:32:29;;;;;;;;;;;15.50;99.90;;;;;;5023171;28;19932;-67
2022/10/10 12:34:56;;;;;;;;;;;15.50;99.90;;;;;;5003358;28;20385;-67
2022/10/10 12:37:44;;;;;;;;;;;15.50;99.90;;;;;;4990628;28;19926;-66
2022/10/10 12:40:10;;;;;;;;;;;15.50;99.90;;;;;;4988039;28;19926;-67
2022/10/10 12:42:58;;;;;;;;;;;15.40;99.90;;;;;;4989060;28;19922;-67
2022/10/10 12:45:30;;;;;;;;;;;15.30;99.90;;;;;;4989942;28;19930;-67
2022/10/10 12:47:55;;;;;;;;;;;15.30;99.90;;;;;;4991627;28;20263;-68
2022/10/10 12:50:25;;;;;;;;;;;15.30;99.90;;;;;;4991027;28;19948;-66
2022/10/10 12:52:58;;;;;;;;;;;15.50;99.90;;;;;;4990880;28;19973;-65
2022/10/10 12:55:28;;;;;;;;;;;15.30;99.90;;;;;;5021619;28;19930;-65
2022/10/10 12:57:55;;;;;;;;;;;15.20;99.90;;;;;;4990508;28;20395;-67
2022/10/10 13:00:21;;;;;;;;;;;15.10;99.90;;;;;;4991155;28;20025;-67
2022/10/10 13:02:50;;;;;;;;;;;15.00;99.90;;;;;;4991202;28;19984;-67
2022/10/10 13:05:18;;;;;;;;;;;15.00;99.90;;;;;;4990478;28;20332;-67
2022/10/10 13:07:44;;;;;;;;;;;14.90;99.90;;;;;;4987635;28;19932;-67
2022/10/10 13:10:24;;;;;;;;;;;14.90;99.90;;;;;;4989693;28;19926;-68
2022/10/10 13:13:04;;;;;;;;;;;14.90;99.90;;;;;;4991567;28;19979;-68
2022/10/10 13:15:30;;;;;;;;;;;14.80;99.90;;;;;;4989601;28;19995;-68
2022/10/10 13:17:56;;;;;;;;;;;14.80;99.90;;;;;;4988932;28;19926;-67
2022/10/10 13:20:26;;;;;;;;;;;14.80;99.90;;;;;;4973677;28;19975;-68
2022/10/10 13:22:52;;;;;;;;;;;14.80;99.90;;;;;;4987738;28;19938;-68
2022/10/10 13:25:17;;;;;;;;;;;14.80;99.90;;;;;;4989533;28;19925;-67
2022/10/10 13:27:43;;;;;;;;;;;14.80;99.90;;;;;;4989962;28;19965;-68
2022/10/10 13:30:17;;;;;;;;;;;14.80;99.90;;;;;;4988732;28;20347;-68
2022/10/10 13:32:43;;;;;;;;;;;14.80;99.90;;;;;;4990703;28;20163;-66
2022/10/10 13:35:14;;;;;;;;;;;14.80;99.90;;;;;;4989408;28;19926;-67
2022/10/10 13:37:40;;;;;;;;;;;14.70;99.90;;;;;;4989834;28;19926;-67
2022/10/10 13:40:12;;;;;;;;;;;14.70;99.90;;;;;;4991141;28;20429;-67
2022/10/10 13:42:38;;;;;;;;;;;14.60;99.90;;;;;;4989396;28;19933;-67
2022/10/10 13:45:23;;;;;;;;;;;14.50;99.90;;;;;;4988277;28;19979;-66
2022/10/10 13:47:51;;;;;;;;;;;14.30;99.90;;;;;;4989344;28;19948;-64
2022/10/10 13:50:18;;;;;;;;;;;14.20;99.90;;;;;;4988826;28;19926;-64
2022/10/10 13:52:44;;;;;;;;;;;14.10;99.90;;;;;;4988774;28;19933;-65
2022/10/10 13:55:23;;;;;;;;;;;14.00;99.90;;;;;;4989084;28;19926;-64
2022/10/10 13:57:50;;;;;;;;;;;14.00;99.90;;;;;;4990067;28;19926;-65
2022/10/10 14:00:19;;;;;;;;;;;13.90;99.90;;;;;;4989575;28;19925;-64
2022/10/10 14:02:45;;;;;;;;;;;13.80;99.90;;;;;;4988672;28;19929;-66
2022/10/10 14:05:15;;;;;;;;;;;13.70;99.90;;;;;;4988623;28;20029;-64
2022/10/10 14:07:45;;;;;;;;;;;13.60;99.90;;;;;;4971095;28;19974;-65
2022/10/10 14:10:12;;;;;;;;;;;13.60;99.90;;;;;;4989223;28;19926;-66
2022/10/10 14:12:41;;;;;;;;;;;13.60;99.90;;;;;;4988969;28;19952;-65
2022/10/10 14:15:25;;;;;;;;;;;13.50;99.90;;;;;;4990118;28;20017;-65
2022/10/10 14:17:51;;;;;;;;;;;13.50;99.90;;;;;;4989700;28;19932;-67
2022/10/10 14:20:17;;;;;;;;;;;13.50;99.90;;;;;;4972903;28;20316;-66
2022/10/10 14:22:42;;;;;;;;;;;13.50;99.90;;;;;;4985656;28;19976;-68
2022/10/10 14:25:09;;;;;;;;;;;13.40;99.90;;;;;;4988797;28;19926;-66
2022/10/10 14:27:34;;;;;;;;;;;13.40;99.90;;;;;;4987904;28;19936;-66
2022/10/10 14:30:00;;;;;;;;;;;13.30;99.90;;;;;;4989072;28;19926;-67